Gorgoypikoos — 9HA3669 — position and weather

sailwx.info

Track history (hours):
 
Tides and Currents Weather Stations Pressure Air Temp Water Temp Dewpoint Dewpoint Depression Visibility Wind Speed Wind Dir Waves Ship Positions

Gorgoypikoos

Last reported at 2017-Oct-03 22:48 UTC. Time now 2017-Oct-17 18:51 UTC.
Position N 49°57' W 130°55'.
Warning: this ship's position is 13 days out of date.

Length 225 m; draft 13 m.

Type: Cargo ship. MMSI: 229859000.

Date/timePositionNaut miles runAvg speedWind from/ knotsBaromVisibWave heightAir tempDewpointWater temp
2017-Oct-03 22:48N 49°57' W 130°55'311.3
2017-Oct-03 22:30N 49°56' W 130°50'9411.0
2017-Oct-03 13:58N 49°14' W 128°40'811.3
2017-Oct-03 13:15N 49°11' W 128°29'1011.2
2017-Oct-03 12:24N 49°07' W 128°16'511.5
2017-Oct-03 12:00N 49°05' W 128°09'711.4
2017-Oct-03 11:26N 49°02' W 128°00'511.4
2017-Oct-03 11:00N 48°60' W 127°54'711.3
2017-Oct-03 10:23N 48°56' W 127°44'411.7
2017-Oct-03 10:00N 48°54' W 127°38'611.6
2017-Oct-03 09:30N 48°52' W 127°30'611.5
2017-Oct-03 08:59N 48°49' W 127°22'611.6
2017-Oct-03 08:30N 48°47' W 127°15'611.3
2017-Oct-03 08:00N 48°44' W 127°07'611.3
2017-Oct-03 07:30N 48°42' W 126°59'611.2
2017-Oct-03 07:01N 48°39' W 126°52'611.1
2017-Oct-03 06:30N 48°37' W 126°44'611.3
2017-Oct-03 05:58N 48°34' W 126°36'511.6
2017-Oct-03 05:31N 48°32' W 126°29'510.9
2017-Oct-03 05:01N 48°31' W 126°21'510.9
2017-Oct-03 04:30N 48°30' W 126°12'510.5
2017-Oct-03 04:00N 48°30' W 126°04'510.6
2017-Oct-03 03:31N 48°31' W 125°56'611.1
2017-Oct-03 03:01N 48°31' W 125°48'611.5
2017-Oct-03 02:30N 48°31' W 125°39'611.2
2017-Oct-03 02:00N 48°31' W 125°31'611.1
2017-Oct-03 01:30N 48°31' W 125°23'510.9
2017-Oct-03 01:01N 48°30' W 125°14'610.9
2017-Oct-03 00:30N 48°31' W 125°06'612.0
2017-Oct-03 00:01N 48°31' W 124°57'612.0
2017-Oct-02 23:30N 48°31' W 124°48'611.6
2017-Oct-02 23:00N 48°29' W 124°40'611.5
2017-Oct-02 22:31N 48°27' W 124°32'611.4
2017-Oct-02 22:01N 48°25' W 124°24'511.0
2017-Oct-02 21:31N 48°23' W 124°16'510.5
2017-Oct-02 21:00N 48°21' W 124°09'510.3
2017-Oct-02 20:30N 48°19' W 124°01'510.4
2017-Oct-02 20:00N 48°17' W 123°54'610.4
2017-Oct-02 19:26N 48°17' W 123°45'410.3
2017-Oct-02 19:00N 48°16' W 123°39'5 9.9
2017-Oct-02 18:30N 48°15' W 123°31'510.0
2017-Oct-02 18:00N 48°12' W 123°26'4 8.6
2017-Oct-02 17:30N 48°08' W 123°22'5 9.6
2017-Oct-02 17:01N 48°10' W 123°15'612.2
2017-Oct-02 16:30N 48°13' W 123°07'611.8
2017-Oct-02 16:00N 48°12' W 122°58'712.8
2017-Oct-02 15:29N 48°12' W 122°48'813.3
2017-Oct-02 14:54N 48°07' W 122°39'613.9
2017-Oct-02 14:29N 48°01' W 122°37'613.5
2017-Oct-02 14:00N 47°56' W 122°31'712.3
2017-Oct-02 13:27N 47°50' W 122°27'512.1
2017-Oct-02 13:00N 47°44' W 122°26'612.1
2017-Oct-02 12:30N 47°38' W 122°27'612.0
2017-Oct-02 12:00N 47°32' W 122°26'611.8
2017-Oct-02 11:30N 47°27' W 122°24'510.2
2017-Oct-02 11:00N 47°22' W 122°23'5 9.8
2017-Oct-02 10:30N 47°17' W 122°27'1 2.9
2017-Oct-02 10:00N 47°16' W 122°27'0 0.0
2017-Oct-02 09:29N 47°16' W 122°27'0 0.0
2017-Oct-02 08:59N 47°16' W 122°27'0 0.0
2017-Oct-02 08:29N 47°16' W 122°27'0 0.0
2017-Oct-02 07:59N 47°16' W 122°27'0 0.0
2017-Oct-02 07:29N 47°16' W 122°27'0 0.0
2017-Oct-02 06:56N 47°16' W 122°27'0 0.0
2017-Oct-02 06:29N 47°16' W 122°27'0 0.0
2017-Oct-02 05:59N 47°16' W 122°27'0 0.0
2017-Oct-02 05:29N 47°16' W 122°27'0 0.0
2017-Oct-02 04:59N 47°16' W 122°27'0 0.0
2017-Oct-02 04:29N 47°16' W 122°27'0 0.0
2017-Oct-02 03:59N 47°16' W 122°27'0 0.0
2017-Oct-02 03:29N 47°16' W 122°27'0 0.0
2017-Oct-02 02:59N 47°16' W 122°27'0 0.0
2017-Oct-02 02:29N 47°16' W 122°27'0 0.0
2017-Oct-02 01:59N 47°16' W 122°27'0 0.0
2017-Oct-02 01:29N 47°16' W 122°27'0 0.0
2017-Oct-02 00:59N 47°16' W 122°27'0 0.0
2017-Oct-02 00:29N 47°16' W 122°27'0 0.0
2017-Oct-01 23:59N 47°16' W 122°27'0 0.0
2017-Oct-01 23:29N 47°16' W 122°27'0 0.0
2017-Oct-01 22:56N 47°16' W 122°27'0 0.0
2017-Oct-01 22:29N 47°16' W 122°27'0 0.0
2017-Oct-01 21:59N 47°16' W 122°27'0 0.0
2017-Oct-01 21:29N 47°16' W 122°27'0 0.1
2017-Oct-01 20:59N 47°16' W 122°27'0 0.0
2017-Oct-01 20:29N 47°16' W 122°27'0 0.0
2017-Oct-01 19:59N 47°16' W 122°27'0 0.0
2017-Oct-01 19:29N 47°16' W 122°27'0 0.0
2017-Oct-01 18:56N 47°16' W 122°27'0 0.0
2017-Oct-01 18:29N 47°16' W 122°27'0 0.0
2017-Oct-01 17:59N 47°16' W 122°27'0 0.0
2017-Oct-01 17:29N 47°16' W 122°27'0 0.0
2017-Oct-01 16:59N 47°16' W 122°27'0 0.0
2017-Oct-01 16:29N 47°16' W 122°27'0 0.0
2017-Oct-01 15:56N 47°16' W 122°27'0 0.0
2017-Oct-01 15:28N 47°16' W 122°27'0 0.0
2017-Oct-01 14:58N 47°16' W 122°27'0 0.1
2017-Oct-01 14:28N 47°16' W 122°27'0 0.0
2017-Oct-01 13:58N 47°16' W 122°27'0 0.0
2017-Oct-01 13:28N 47°16' W 122°27'0 0.0
2017-Oct-01 12:58N 47°16' W 122°27'0 0.0
2017-Oct-01 12:29N 47°16' W 122°27'0 0.0
2017-Oct-01 11:58N 47°16' W 122°27'0 0.0
2017-Oct-01 11:28N 47°16' W 122°27'0 0.0
2017-Oct-01 10:58N 47°16' W 122°27'0 0.0
2017-Oct-01 10:28N 47°16' W 122°27'0 0.0
2017-Oct-01 09:58N 47°16' W 122°27'0 0.0
2017-Oct-01 09:28N 47°16' W 122°27'0 0.0
2017-Oct-01 08:58N 47°16' W 122°27'0 0.0
2017-Oct-01 08:28N 47°16' W 122°27'0 0.0
2017-Oct-01 07:58N 47°16' W 122°27'0 0.0
2017-Oct-01 07:28N 47°16' W 122°27'0 0.0
2017-Oct-01 06:58N 47°16' W 122°27'0 0.0
2017-Oct-01 06:28N 47°16' W 122°27'0 0.0
2017-Oct-01 05:58N 47°16' W 122°27'0 0.0
2017-Oct-01 05:28N 47°16' W 122°27'0 0.0
2017-Oct-01 04:58N 47°16' W 122°27'0 0.0
2017-Oct-01 04:28N 47°16' W 122°27'0 0.0
2017-Oct-01 03:55N 47°16' W 122°27'0 0.0
2017-Oct-01 03:28N 47°16' W 122°27'0 0.0
2017-Oct-01 02:58N 47°16' W 122°27'0 0.0
2017-Sep-30 02:00N 47°16' W 122°27'0 0.0
2017-Sep-30 01:30N 47°16' W 122°27'0 0.0
2017-Sep-30 01:00N 47°16' W 122°27'0 0.0
2017-Sep-30 00:30N 47°16' W 122°27'0 0.0
2017-Sep-30 00:00N 47°16' W 122°27'0 0.0
2017-Sep-29 23:30N 47°16' W 122°27'0 0.0
2017-Sep-29 23:00N 47°16' W 122°27'0 0.0
2017-Sep-29 22:30N 47°16' W 122°27'0 0.0
2017-Sep-29 22:00N 47°16' W 122°27'0 0.0
2017-Sep-29 21:30N 47°16' W 122°27'0 0.0
2017-Sep-29 21:00N 47°16' W 122°27'0 0.0
2017-Sep-29 20:30N 47°16' W 122°27'0 0.0
2017-Sep-29 20:00N 47°16' W 122°27'0 0.0
2017-Sep-29 19:30N 47°16' W 122°27'0 0.0
2017-Sep-29 19:00N 47°16' W 122°27'0 0.0
2017-Sep-29 18:30N 47°16' W 122°27'0 0.0
2017-Sep-29 18:00N 47°16' W 122°27'0 0.0
2017-Sep-29 17:30N 47°16' W 122°27'0 0.1
2017-Sep-29 16:57N 47°16' W 122°27'0 0.1
2017-Sep-29 16:30N 47°16' W 122°27'0 0.0
2017-Sep-29 16:00N 47°16' W 122°27'0 0.0
2017-Sep-29 15:30N 47°16' W 122°27'0 0.1
2017-Sep-29 15:00N 47°16' W 122°27'0 0.1
2017-Sep-29 14:30N 47°16' W 122°27'0 0.0
2017-Sep-29 14:00N 47°16' W 122°27'0 0.0
2017-Sep-29 13:30N 47°16' W 122°27'0 0.0
2017-Sep-29 13:00N 47°16' W 122°27'0 0.0
2017-Sep-29 12:30N 47°16' W 122°27'0 0.0
2017-Sep-29 12:00N 47°16' W 122°27'0 0.0
2017-Sep-29 11:30N 47°16' W 122°27'0 0.0
2017-Sep-29 11:00N 47°16' W 122°27'0 0.0
2017-Sep-29 10:30N 47°16' W 122°27'0 0.0
2017-Sep-29 10:00N 47°16' W 122°27'0 0.0
2017-Sep-29 09:30N 47°16' W 122°27'0 0.0
2017-Sep-29 08:57N 47°16' W 122°27'0 0.0
2017-Sep-29 08:30N 47°16' W 122°27'0 0.0
2017-Sep-29 08:00N 47°16' W 122°27'0 0.0
2017-Sep-29 07:30N 47°16' W 122°27'0 0.0
2017-Sep-29 07:00N 47°16' W 122°27'0 0.0
2017-Sep-29 06:30N 47°16' W 122°27'0 0.0
2017-Sep-29 06:00N 47°16' W 122°27'0 0.0
2017-Sep-29 05:30N 47°16' W 122°27'0 0.0
2017-Sep-29 05:00N 47°16' W 122°27'0 0.0
2017-Sep-29 04:27N 47°16' W 122°27'0 0.0
2017-Sep-29 04:00N 47°16' W 122°27'0 0.0
2017-Sep-29 03:30N 47°16' W 122°27'0 0.0
2017-Sep-29 03:00N 47°16' W 122°27'0 0.0
2017-Sep-29 02:30N 47°16' W 122°27'0 0.0
2017-Sep-29 02:00N 47°16' W 122°27'0 0.0
2017-Sep-29 01:30N 47°16' W 122°27'0 0.0
2017-Sep-29 01:00N 47°16' W 122°27'0 0.0
2017-Sep-29 00:30N 47°16' W 122°27'0 0.0
2017-Sep-29 00:00N 47°16' W 122°27'0 0.0
2017-Sep-28 23:30N 47°16' W 122°27'0 0.0
2017-Sep-28 23:00N 47°16' W 122°27'0 0.0
2017-Sep-28 22:30N 47°16' W 122°27'0 0.0
2017-Sep-28 22:00N 47°16' W 122°27'0 0.0
2017-Sep-28 21:30N 47°16' W 122°27'0 0.0
2017-Sep-28 21:00N 47°16' W 122°27'0 0.0
2017-Sep-28 20:30N 47°16' W 122°27'0 0.0
2017-Sep-28 20:00N 47°16' W 122°27'0 0.0
2017-Sep-28 19:30N 47°16' W 122°27'0 0.0
2017-Sep-28 19:00N 47°16' W 122°27'0 0.0
2017-Sep-28 18:27N 47°16' W 122°27'0 0.0
2017-Sep-28 17:57N 47°16' W 122°27'0 0.0
2017-Sep-28 17:30N 47°16' W 122°27'0 0.0
2017-Sep-28 17:00N 47°16' W 122°27'0 0.0
2017-Sep-28 16:30N 47°16' W 122°27'0 0.0
2017-Sep-28 16:00N 47°16' W 122°27'0 0.0
2017-Sep-28 15:30N 47°16' W 122°27'0 0.0
2017-Sep-28 15:00N 47°16' W 122°27'0 0.0
2017-Sep-28 14:24N 47°16' W 122°27'0 0.0
2017-Sep-28 14:00N 47°16' W 122°27'0 0.0
2017-Sep-28 13:30N 47°16' W 122°27'0 0.0
2017-Sep-28 12:59N 47°16' W 122°27'0 0.0
2017-Sep-28 12:29N 47°16' W 122°27'0 0.0
2017-Sep-28 11:59N 47°16' W 122°27'0 0.0
2017-Sep-28 11:29N 47°16' W 122°27'0 0.0
2017-Sep-28 10:59N 47°16' W 122°27'0 0.0
2017-Sep-28 10:29N 47°16' W 122°27'0 0.0
2017-Sep-28 09:59N 47°16' W 122°27'0 0.0
2017-Sep-28 09:29N 47°16' W 122°27'0 0.0
2017-Sep-28 08:59N 47°16' W 122°27'0 0.0
2017-Sep-28 08:29N 47°16' W 122°27'0 0.0
2017-Sep-28 07:59N 47°16' W 122°27'0 0.0
2017-Sep-28 07:26N 47°16' W 122°27'0 0.0
2017-Sep-28 06:59N 47°16' W 122°27'0 0.0
2017-Sep-28 06:29N 47°16' W 122°27'0 0.0
2017-Sep-28 05:59N 47°16' W 122°27'0 0.0
2017-Sep-28 05:29N 47°16' W 122°27'0 0.2
2017-Sep-28 05:00N 47°16' W 122°27'3 5.9
2017-Sep-28 04:31N 47°18' W 122°30'0 0.7
2017-Sep-28 03:56N 47°18' W 122°30'0 0.1
2017-Sep-28 03:29N 47°18' W 122°30'0 0.0
2017-Sep-28 02:59N 47°18' W 122°30'0 0.0
2017-Sep-28 02:29N 47°18' W 122°30'0 0.1
2017-Sep-28 01:59N 47°18' W 122°30'0 0.1
2017-Sep-28 01:29N 47°18' W 122°30'0 0.0
2017-Sep-28 00:59N 47°18' W 122°30'0 0.0
2017-Sep-28 00:26N 47°18' W 122°30'0 0.1
2017-Sep-27 23:59N 47°18' W 122°30'0 0.2
2017-Sep-27 23:29N 47°18' W 122°30'0 0.0
2017-Sep-27 22:59N 47°18' W 122°30'0 0.0
2017-Sep-27 22:29N 47°18' W 122°30'0 0.0
2017-Sep-27 21:59N 47°18' W 122°30'0 0.0
2017-Sep-27 21:26N 47°18' W 122°30'0 0.0
2017-Sep-27 20:50N 47°18' W 122°30'0 0.0
2017-Sep-27 20:29N 47°18' W 122°30'0 0.0
2017-Sep-27 19:59N 47°18' W 122°30'0 0.0
2017-Sep-27 19:29N 47°18' W 122°30'0 0.0
2017-Sep-27 18:56N 47°18' W 122°30'0 0.1
2017-Sep-27 18:29N 47°18' W 122°30'0 0.0
2017-Sep-27 17:59N 47°18' W 122°30'0 0.0
2017-Sep-27 17:29N 47°18' W 122°30'0 0.0
2017-Sep-27 16:59N 47°18' W 122°30'0 0.0
2017-Sep-27 16:29N 47°18' W 122°30'0 0.2
2017-Sep-27 15:59N 47°18' W 122°30'0 0.0
2017-Sep-27 15:29N 47°18' W 122°30'0 0.0
2017-Sep-27 14:59N 47°18' W 122°30'0 0.0
2017-Sep-27 14:26N 47°18' W 122°30'0 0.1
2017-Sep-27 13:59N 47°18' W 122°30'0 0.1
2017-Sep-27 13:29N 47°18' W 122°30'0 0.3
2017-Sep-27 12:56N 47°18' W 122°30'0 0.1
2017-Sep-27 12:29N 47°18' W 122°30'0 0.2
2017-Sep-27 11:59N 47°18' W 122°30'0 0.0
2017-Sep-27 11:29N 47°18' W 122°30'0 0.1
2017-Sep-27 10:59N 47°18' W 122°30'0 0.0
2017-Sep-27 10:29N 47°18' W 122°30'0 0.1
2017-Sep-27 09:59N 47°18' W 122°30'0 0.1
2017-Sep-27 09:29N 47°18' W 122°30'0 0.2
2017-Sep-27 08:59N 47°18' W 122°30'0 0.3
2017-Sep-27 08:29N 47°18' W 122°30'0 0.1
2017-Sep-27 07:59N 47°18' W 122°30'0 0.1
2017-Sep-27 07:29N 47°18' W 122°30'0 0.1
2017-Sep-27 06:59N 47°18' W 122°30'0 0.1
2017-Sep-27 06:29N 47°18' W 122°30'0 0.2
2017-Sep-27 05:59N 47°18' W 122°30'0 0.1
2017-Sep-27 05:29N 47°18' W 122°30'0 0.1
2017-Sep-27 04:59N 47°18' W 122°30'0 0.1
2017-Sep-27 04:29N 47°18' W 122°30'0 0.1
2017-Sep-27 03:59N 47°18' W 122°30'0 0.0
2017-Sep-27 03:29N 47°18' W 122°30'0 0.1
2017-Sep-27 02:59N 47°18' W 122°30'0 0.1
2017-Sep-27 02:29N 47°18' W 122°30'0 0.1
2017-Sep-27 01:59N 47°18' W 122°30'0 0.0
2017-Sep-27 01:29N 47°18' W 122°30'0 0.1
2017-Sep-27 00:59N 47°18' W 122°30'0 0.2
2017-Sep-27 00:29N 47°18' W 122°30'0 0.4
2017-Sep-26 23:59N 47°18' W 122°30'0 0.0
2017-Sep-26 23:29N 47°18' W 122°30'0 0.0
2017-Sep-26 22:59N 47°18' W 122°30'0 0.1
2017-Sep-26 22:29N 47°18' W 122°30'0 0.0
2017-Sep-26 21:56N 47°18' W 122°30'0 0.0
2017-Sep-26 21:29N 47°18' W 122°30'0 0.0
2017-Sep-26 20:56N 47°18' W 122°30'0 0.0
2017-Sep-26 20:23N 47°18' W 122°30'0 0.0
2017-Sep-26 19:59N 47°18' W 122°30'0 0.0
2017-Sep-26 19:28N 47°18' W 122°30'0 0.0
2017-Sep-26 18:58N 47°18' W 122°30'0 0.1
2017-Sep-26 18:25N 47°18' W 122°30'0 0.1
2017-Sep-26 17:55N 47°18' W 122°30'0 0.1
2017-Sep-26 17:28N 47°18' W 122°30'0 0.0
2017-Sep-26 16:58N 47°18' W 122°30'0 0.1
2017-Sep-26 16:28N 47°18' W 122°30'0 0.0
2017-Sep-26 15:55N 47°18' W 122°30'0 0.1
2017-Sep-26 15:28N 47°18' W 122°30'0 0.0
2017-Sep-26 14:55N 47°18' W 122°30'0 0.0
2017-Sep-26 14:28N 47°18' W 122°30'0 0.1
2017-Sep-26 13:58N 47°18' W 122°30'0 0.0
2017-Sep-26 13:28N 47°18' W 122°30'0 0.1
2017-Sep-26 12:58N 47°18' W 122°30'0 0.0
2017-Sep-26 12:28N 47°18' W 122°30'0 0.1
2017-Sep-26 11:58N 47°19' W 122°30'0 0.1
2017-Sep-26 11:28N 47°18' W 122°30'0 0.1
2017-Sep-26 10:49N 47°18' W 122°30'0 0.0
2017-Sep-26 10:28N 47°18' W 122°30'0 0.0
2017-Sep-26 09:58N 47°18' W 122°30'0 0.0
2017-Sep-26 09:28N 47°18' W 122°30'0 0.0
2017-Sep-26 08:58N 47°18' W 122°30'0 0.2
2017-Sep-26 08:28N 47°18' W 122°30'0 0.1
2017-Sep-26 07:58N 47°18' W 122°30'0 0.0
2017-Sep-26 07:28N 47°19' W 122°30'0 0.1
2017-Sep-26 06:58N 47°19' W 122°30'0 0.1
2017-Sep-26 06:28N 47°18' W 122°30'0 0.1
2017-Sep-26 05:58N 47°18' W 122°30'0 0.1
2017-Sep-26 05:28N 47°19' W 122°30'0 0.2
2017-Sep-26 04:58N 47°18' W 122°30'0 0.1
2017-Sep-26 04:28N 47°18' W 122°30'0 0.0
2017-Sep-26 03:58N 47°18' W 122°30'0 0.0
2017-Sep-26 03:28N 47°18' W 122°30'0 0.1
2017-Sep-26 02:58N 47°18' W 122°30'0 0.1
2017-Sep-26 02:28N 47°18' W 122°30'0 0.1
2017-Sep-26 01:58N 47°18' W 122°30'0 0.1
2017-Sep-26 01:25N 47°18' W 122°30'0 0.1
2017-Sep-26 00:58N 47°18' W 122°30'0 0.2
2017-Sep-26 00:28N 47°19' W 122°30'0 0.1
2017-Sep-25 23:58N 47°18' W 122°30'0 0.1
2017-Sep-25 23:28N 47°19' W 122°30'0 0.2
2017-Sep-25 22:58N 47°18' W 122°30'0 0.0
2017-Sep-25 22:28N 47°18' W 122°30'0 0.0
2017-Sep-25 21:58N 47°18' W 122°30'0 0.1
2017-Sep-25 21:28N 47°18' W 122°30'0 0.0
2017-Sep-25 20:58N 47°18' W 122°30'0 0.0
2017-Sep-25 20:28N 47°18' W 122°30'0 0.1
2017-Sep-25 19:58N 47°18' W 122°30'0 0.1
2017-Sep-25 19:28N 47°19' W 122°30'0 0.0
2017-Sep-25 18:58N 47°18' W 122°30'0 0.0
2017-Sep-25 18:28N 47°19' W 122°30'0 0.1
2017-Sep-25 17:58N 47°18' W 122°30'0 0.0
2017-Sep-25 17:25N 47°18' W 122°30'0 0.1
2017-Sep-25 16:58N 47°18' W 122°30'0 0.0
2017-Sep-25 16:28N 47°18' W 122°30'0 0.2
2017-Sep-25 15:58N 47°18' W 122°30'0 0.1
2017-Sep-25 15:28N 47°18' W 122°30'0 0.0
2017-Sep-25 14:58N 47°18' W 122°30'0 0.1
2017-Sep-25 14:28N 47°18' W 122°30'0 0.0
2017-Sep-25 13:58N 47°18' W 122°30'0 0.0
2017-Sep-25 13:28N 47°18' W 122°30'0 0.1
2017-Sep-25 12:58N 47°18' W 122°30'0 0.0
2017-Sep-25 12:28N 47°18' W 122°30'0 0.0
2017-Sep-25 11:58N 47°18' W 122°30'0 0.0
2017-Sep-25 11:25N 47°18' W 122°30'0 0.1
2017-Sep-25 10:58N 47°18' W 122°30'0 0.1
2017-Sep-25 10:28N 47°18' W 122°30'0 0.0
2017-Sep-25 09:58N 47°18' W 122°30'0 0.2
2017-Sep-25 09:28N 47°18' W 122°30'0 0.1
2017-Sep-25 08:58N 47°18' W 122°30'0 0.2
2017-Sep-25 08:28N 47°18' W 122°30'0 0.0
2017-Sep-25 08:01N 47°18' W 122°30'0 0.2
2017-Sep-25 07:28N 47°18' W 122°30'0 0.2
2017-Sep-25 07:01N 47°18' W 122°30'0 0.1
2017-Sep-25 06:30N 47°18' W 122°30'0 0.0
2017-Sep-25 06:00N 47°18' W 122°30'0 0.2
2017-Sep-25 05:30N 47°18' W 122°30'0 0.1
2017-Sep-25 05:00N 47°18' W 122°30'0 0.1
2017-Sep-25 04:30N 47°18' W 122°30'0 0.2
2017-Sep-25 04:00N 47°18' W 122°30'0 0.1
2017-Sep-25 03:27N 47°18' W 122°30'0 0.0
2017-Sep-25 03:00N 47°18' W 122°30'0 0.1
2017-Sep-25 02:30N 47°18' W 122°30'0 0.2
2017-Sep-25 02:00N 47°18' W 122°30'0 0.1
2017-Sep-25 01:30N 47°18' W 122°30'0 0.1
2017-Sep-25 01:00N 47°18' W 122°30'0 0.1
2017-Sep-25 00:30N 47°18' W 122°30'0 0.0
2017-Sep-25 00:00N 47°18' W 122°30'0 0.1
2017-Sep-24 23:30N 47°18' W 122°30'0 0.1
2017-Sep-24 23:00N 47°18' W 122°30'0 0.2
2017-Sep-24 22:30N 47°18' W 122°30'0 0.2
2017-Sep-24 22:00N 47°18' W 122°30'0 0.2
2017-Sep-24 21:30N 47°18' W 122°30'0 0.1
2017-Sep-24 20:57N 47°18' W 122°30'0 0.3
2017-Sep-24 20:30N 47°18' W 122°30'0 0.2
2017-Sep-24 20:00N 47°18' W 122°30'0 0.1
2017-Sep-24 19:30N 47°19' W 122°30'0 0.1
2017-Sep-24 19:00N 47°18' W 122°30'0 0.0
2017-Sep-24 18:30N 47°18' W 122°30'0 0.1
2017-Sep-24 18:00N 47°18' W 122°30'0 0.0
2017-Sep-24 17:30N 47°19' W 122°30'0 0.1
2017-Sep-24 17:00N 47°18' W 122°30'0 0.1
2017-Sep-24 16:30N 47°18' W 122°30'0 0.0
2017-Sep-24 16:00N 47°18' W 122°30'0 0.0
2017-Sep-24 15:30N 47°18' W 122°30'0 0.0
2017-Sep-24 15:00N 47°18' W 122°30'0 0.1
2017-Sep-24 14:30N 47°18' W 122°30'0 0.1
2017-Sep-24 14:00N 47°18' W 122°30'0 0.0
2017-Sep-24 13:30N 47°18' W 122°30'0 0.0
2017-Sep-24 13:00N 47°18' W 122°30'0 0.0
2017-Sep-24 12:27N 47°18' W 122°30'0 0.0
2017-Sep-24 12:00N 47°18' W 122°30'0 0.1
2017-Sep-24 11:30N 47°18' W 122°30'0 0.0
2017-Sep-24 11:00N 47°18' W 122°30'0 0.1
2017-Sep-24 10:30N 47°18' W 122°30'0 0.2
2017-Sep-24 10:00N 47°18' W 122°30'0 0.1
2017-Sep-24 09:30N 47°18' W 122°30'0 0.2
2017-Sep-24 09:00N 47°18' W 122°30'0 0.0
2017-Sep-24 08:30N 47°18' W 122°30'0 0.2
2017-Sep-24 08:00N 47°18' W 122°30'0 0.3
2017-Sep-24 07:30N 47°18' W 122°30'0 0.0
2017-Sep-24 07:00N 47°18' W 122°30'0 0.0
2017-Sep-24 06:30N 47°18' W 122°30'0 0.1
2017-Sep-24 06:00N 47°18' W 122°30'0 0.1
2017-Sep-24 05:30N 47°18' W 122°30'0 0.0
2017-Sep-24 05:00N 47°18' W 122°30'0 0.0
2017-Sep-24 04:30N 47°18' W 122°30'0 0.1
2017-Sep-24 04:00N 47°19' W 122°30'0 0.2
2017-Sep-24 03:30N 47°18' W 122°30'0 0.2
2017-Sep-24 03:00N 47°18' W 122°30'0 0.1
2017-Sep-24 02:30N 47°18' W 122°30'0 0.0
2017-Sep-24 02:00N 47°18' W 122°30'0 0.0
2017-Sep-24 01:30N 47°18' W 122°30'0 0.1
2017-Sep-24 01:00N 47°18' W 122°30'0 0.0
2017-Sep-24 00:30N 47°18' W 122°30'0 0.0
2017-Sep-24 00:00N 47°18' W 122°30'0 0.2
2017-Sep-23 23:27N 47°18' W 122°30'0 0.2
2017-Sep-23 23:00N 47°18' W 122°30'  
Track history (hours):
 
Tides and Currents Weather Stations Pressure Air Temp Water Temp Dewpoint Dewpoint Depression Visibility Wind Speed Wind Dir Waves Ship Positions

Gorgoypikoos

Last reported at 2017-Oct-03 22:48 UTC. Time now 2017-Oct-17 18:51 UTC.
Position N 49°57' W 130°55'.
Warning: this ship's position is 13 days out of date.

Length 225 m; draft 13 m.

Type: Cargo ship. MMSI: 229859000.

Date/timePositionNaut miles runAvg speedWind from/ knotsBaromVisibWave heightAir tempDewpointWater temp
2017-Oct-03 22:48N 49°57' W 130°55'311.3
2017-Oct-03 22:30N 49°56' W 130°50'9411.0
2017-Oct-03 13:58N 49°14' W 128°40'811.3
2017-Oct-03 13:15N 49°11' W 128°29'1011.2
2017-Oct-03 12:24N 49°07' W 128°16'511.5
2017-Oct-03 12:00N 49°05' W 128°09'711.4
2017-Oct-03 11:26N 49°02' W 128°00'511.4
2017-Oct-03 11:00N 48°60' W 127°54'711.3
2017-Oct-03 10:23N 48°56' W 127°44'411.7
2017-Oct-03 10:00N 48°54' W 127°38'611.6
2017-Oct-03 09:30N 48°52' W 127°30'611.5
2017-Oct-03 08:59N 48°49' W 127°22'611.6
2017-Oct-03 08:30N 48°47' W 127°15'611.3
2017-Oct-03 08:00N 48°44' W 127°07'611.3
2017-Oct-03 07:30N 48°42' W 126°59'611.2
2017-Oct-03 07:01N 48°39' W 126°52'611.1
2017-Oct-03 06:30N 48°37' W 126°44'611.3
2017-Oct-03 05:58N 48°34' W 126°36'511.6
2017-Oct-03 05:31N 48°32' W 126°29'510.9
2017-Oct-03 05:01N 48°31' W 126°21'510.9
2017-Oct-03 04:30N 48°30' W 126°12'510.5
2017-Oct-03 04:00N 48°30' W 126°04'510.6
2017-Oct-03 03:31N 48°31' W 125°56'611.1
2017-Oct-03 03:01N 48°31' W 125°48'611.5
2017-Oct-03 02:30N 48°31' W 125°39'611.2
2017-Oct-03 02:00N 48°31' W 125°31'611.1
2017-Oct-03 01:30N 48°31' W 125°23'510.9
2017-Oct-03 01:01N 48°30' W 125°14'610.9
2017-Oct-03 00:30N 48°31' W 125°06'612.0
2017-Oct-03 00:01N 48°31' W 124°57'612.0
2017-Oct-02 23:30N 48°31' W 124°48'611.6
2017-Oct-02 23:00N 48°29' W 124°40'611.5
2017-Oct-02 22:31N 48°27' W 124°32'611.4
2017-Oct-02 22:01N 48°25' W 124°24'511.0
2017-Oct-02 21:31N 48°23' W 124°16'510.5
2017-Oct-02 21:00N 48°21' W 124°09'510.3
2017-Oct-02 20:30N 48°19' W 124°01'510.4
2017-Oct-02 20:00N 48°17' W 123°54'610.4
2017-Oct-02 19:26N 48°17' W 123°45'410.3
2017-Oct-02 19:00N 48°16' W 123°39'5 9.9
2017-Oct-02 18:30N 48°15' W 123°31'510.0
2017-Oct-02 18:00N 48°12' W 123°26'4 8.6
2017-Oct-02 17:30N 48°08' W 123°22'5 9.6
2017-Oct-02 17:01N 48°10' W 123°15'612.2
2017-Oct-02 16:30N 48°13' W 123°07'611.8
2017-Oct-02 16:00N 48°12' W 122°58'712.8
2017-Oct-02 15:29N 48°12' W 122°48'813.3
2017-Oct-02 14:54N 48°07' W 122°39'613.9
2017-Oct-02 14:29N 48°01' W 122°37'613.5
2017-Oct-02 14:00N 47°56' W 122°31'712.3
2017-Oct-02 13:27N 47°50' W 122°27'512.1
2017-Oct-02 13:00N 47°44' W 122°26'612.1
2017-Oct-02 12:30N 47°38' W 122°27'612.0
2017-Oct-02 12:00N 47°32' W 122°26'611.8
2017-Oct-02 11:30N 47°27' W 122°24'510.2
2017-Oct-02 11:00N 47°22' W 122°23'5 9.8
2017-Oct-02 10:30N 47°17' W 122°27'1 2.9
2017-Oct-02 10:00N 47°16' W 122°27'0 0.0
2017-Oct-02 09:29N 47°16' W 122°27'0 0.0
2017-Oct-02 08:59N 47°16' W 122°27'0 0.0
2017-Oct-02 08:29N 47°16' W 122°27'0 0.0
2017-Oct-02 07:59N 47°16' W 122°27'0 0.0
2017-Oct-02 07:29N 47°16' W 122°27'0 0.0
2017-Oct-02 06:56N 47°16' W 122°27'0 0.0
2017-Oct-02 06:29N 47°16' W 122°27'0 0.0
2017-Oct-02 05:59N 47°16' W 122°27'0 0.0
2017-Oct-02 05:29N 47°16' W 122°27'0 0.0
2017-Oct-02 04:59N 47°16' W 122°27'0 0.0
2017-Oct-02 04:29N 47°16' W 122°27'0 0.0
2017-Oct-02 03:59N 47°16' W 122°27'0 0.0
2017-Oct-02 03:29N 47°16' W 122°27'0 0.0
2017-Oct-02 02:59N 47°16' W 122°27'0 0.0
2017-Oct-02 02:29N 47°16' W 122°27'0 0.0
2017-Oct-02 01:59N 47°16' W 122°27'0 0.0
2017-Oct-02 01:29N 47°16' W 122°27'0 0.0
2017-Oct-02 00:59N 47°16' W 122°27'0 0.0
2017-Oct-02 00:29N 47°16' W 122°27'0 0.0
2017-Oct-01 23:59N 47°16' W 122°27'0 0.0
2017-Oct-01 23:29N 47°16' W 122°27'0 0.0
2017-Oct-01 22:56N 47°16' W 122°27'0 0.0
2017-Oct-01 22:29N 47°16' W 122°27'0 0.0
2017-Oct-01 21:59N 47°16' W 122°27'0 0.0
2017-Oct-01 21:29N 47°16' W 122°27'0 0.1
2017-Oct-01 20:59N 47°16' W 122°27'0 0.0
2017-Oct-01 20:29N 47°16' W 122°27'0 0.0
2017-Oct-01 19:59N 47°16' W 122°27'0 0.0
2017-Oct-01 19:29N 47°16' W 122°27'0 0.0
2017-Oct-01 18:56N 47°16' W 122°27'0 0.0
2017-Oct-01 18:29N 47°16' W 122°27'0 0.0
2017-Oct-01 17:59N 47°16' W 122°27'0 0.0
2017-Oct-01 17:29N 47°16' W 122°27'0 0.0
2017-Oct-01 16:59N 47°16' W 122°27'0 0.0
2017-Oct-01 16:29N 47°16' W 122°27'0 0.0
2017-Oct-01 15:56N 47°16' W 122°27'0 0.0
2017-Oct-01 15:28N 47°16' W 122°27'0 0.0
2017-Oct-01 14:58N 47°16' W 122°27'0 0.1
2017-Oct-01 14:28N 47°16' W 122°27'0 0.0
2017-Oct-01 13:58N 47°16' W 122°27'0 0.0
2017-Oct-01 13:28N 47°16' W 122°27'0 0.0
2017-Oct-01 12:58N 47°16' W 122°27'0 0.0
2017-Oct-01 12:29N 47°16' W 122°27'0 0.0
2017-Oct-01 11:58N 47°16' W 122°27'0 0.0
2017-Oct-01 11:28N 47°16' W 122°27'0 0.0
2017-Oct-01 10:58N 47°16' W 122°27'0 0.0
2017-Oct-01 10:28N 47°16' W 122°27'0 0.0
2017-Oct-01 09:58N 47°16' W 122°27'0 0.0
2017-Oct-01 09:28N 47°16' W 122°27'0 0.0
2017-Oct-01 08:58N 47°16' W 122°27'0 0.0
2017-Oct-01 08:28N 47°16' W 122°27'0 0.0
2017-Oct-01 07:58N 47°16' W 122°27'0 0.0
2017-Oct-01 07:28N 47°16' W 122°27'0 0.0
2017-Oct-01 06:58N 47°16' W 122°27'0 0.0
2017-Oct-01 06:28N 47°16' W 122°27'0 0.0
2017-Oct-01 05:58N 47°16' W 122°27'0 0.0
2017-Oct-01 05:28N 47°16' W 122°27'0 0.0
2017-Oct-01 04:58N 47°16' W 122°27'0 0.0
2017-Oct-01 04:28N 47°16' W 122°27'0 0.0
2017-Oct-01 03:55N 47°16' W 122°27'0 0.0
2017-Oct-01 03:28N 47°16' W 122°27'0 0.0
2017-Oct-01 02:58N 47°16' W 122°27'0 0.0
2017-Sep-30 02:00N 47°16' W 122°27'0 0.0
2017-Sep-30 01:30N 47°16' W 122°27'0 0.0
2017-Sep-30 01:00N 47°16' W 122°27'0 0.0
2017-Sep-30 00:30N 47°16' W 122°27'0 0.0
2017-Sep-30 00:00N 47°16' W 122°27'0 0.0
2017-Sep-29 23:30N 47°16' W 122°27'0 0.0
2017-Sep-29 23:00N 47°16' W 122°27'0 0.0
2017-Sep-29 22:30N 47°16' W 122°27'0 0.0
2017-Sep-29 22:00N 47°16' W 122°27'0 0.0
2017-Sep-29 21:30N 47°16' W 122°27'0 0.0
2017-Sep-29 21:00N 47°16' W 122°27'0 0.0
2017-Sep-29 20:30N 47°16' W 122°27'0 0.0
2017-Sep-29 20:00N 47°16' W 122°27'0 0.0
2017-Sep-29 19:30N 47°16' W 122°27'0 0.0
2017-Sep-29 19:00N 47°16' W 122°27'0 0.0
2017-Sep-29 18:30N 47°16' W 122°27'0 0.0
2017-Sep-29 18:00N 47°16' W 122°27'0 0.0
2017-Sep-29 17:30N 47°16' W 122°27'0 0.1
2017-Sep-29 16:57N 47°16' W 122°27'0 0.1
2017-Sep-29 16:30N 47°16' W 122°27'0 0.0
2017-Sep-29 16:00N 47°16' W 122°27'0 0.0
2017-Sep-29 15:30N 47°16' W 122°27'0 0.1
2017-Sep-29 15:00N 47°16' W 122°27'0 0.1
2017-Sep-29 14:30N 47°16' W 122°27'0 0.0
2017-Sep-29 14:00N 47°16' W 122°27'0 0.0
2017-Sep-29 13:30N 47°16' W 122°27'0 0.0
2017-Sep-29 13:00N 47°16' W 122°27'0 0.0
2017-Sep-29 12:30N 47°16' W 122°27'0 0.0
2017-Sep-29 12:00N 47°16' W 122°27'0 0.0
2017-Sep-29 11:30N 47°16' W 122°27'0 0.0
2017-Sep-29 11:00N 47°16' W 122°27'0 0.0
2017-Sep-29 10:30N 47°16' W 122°27'0 0.0
2017-Sep-29 10:00N 47°16' W 122°27'0 0.0
2017-Sep-29 09:30N 47°16' W 122°27'0 0.0
2017-Sep-29 08:57N 47°16' W 122°27'0 0.0
2017-Sep-29 08:30N 47°16' W 122°27'0 0.0
2017-Sep-29 08:00N 47°16' W 122°27'0 0.0
2017-Sep-29 07:30N 47°16' W 122°27'0 0.0
2017-Sep-29 07:00N 47°16' W 122°27'0 0.0
2017-Sep-29 06:30N 47°16' W 122°27'0 0.0
2017-Sep-29 06:00N 47°16' W 122°27'0 0.0
2017-Sep-29 05:30N 47°16' W 122°27'0 0.0
2017-Sep-29 05:00N 47°16' W 122°27'0 0.0
2017-Sep-29 04:27N 47°16' W 122°27'0 0.0
2017-Sep-29 04:00N 47°16' W 122°27'0 0.0
2017-Sep-29 03:30N 47°16' W 122°27'0 0.0
2017-Sep-29 03:00N 47°16' W 122°27'0 0.0
2017-Sep-29 02:30N 47°16' W 122°27'0 0.0
2017-Sep-29 02:00N 47°16' W 122°27'0 0.0
2017-Sep-29 01:30N 47°16' W 122°27'0 0.0
2017-Sep-29 01:00N 47°16' W 122°27'0 0.0
2017-Sep-29 00:30N 47°16' W 122°27'0 0.0
2017-Sep-29 00:00N 47°16' W 122°27'0 0.0
2017-Sep-28 23:30N 47°16' W 122°27'0 0.0
2017-Sep-28 23:00N 47°16' W 122°27'0 0.0
2017-Sep-28 22:30N 47°16' W 122°27'0 0.0
2017-Sep-28 22:00N 47°16' W 122°27'0 0.0
2017-Sep-28 21:30N 47°16' W 122°27'0 0.0
2017-Sep-28 21:00N 47°16' W 122°27'0 0.0
2017-Sep-28 20:30N 47°16' W 122°27'0 0.0
2017-Sep-28 20:00N 47°16' W 122°27'0 0.0
2017-Sep-28 19:30N 47°16' W 122°27'0 0.0
2017-Sep-28 19:00N 47°16' W 122°27'0 0.0
2017-Sep-28 18:27N 47°16' W 122°27'0 0.0
2017-Sep-28 17:57N 47°16' W 122°27'0 0.0
2017-Sep-28 17:30N 47°16' W 122°27'0 0.0
2017-Sep-28 17:00N 47°16' W 122°27'0 0.0
2017-Sep-28 16:30N 47°16' W 122°27'0 0.0
2017-Sep-28 16:00N 47°16' W 122°27'0 0.0
2017-Sep-28 15:30N 47°16' W 122°27'0 0.0
2017-Sep-28 15:00N 47°16' W 122°27'0 0.0
2017-Sep-28 14:24N 47°16' W 122°27'0 0.0
2017-Sep-28 14:00N 47°16' W 122°27'0 0.0
2017-Sep-28 13:30N 47°16' W 122°27'0 0.0
2017-Sep-28 12:59N 47°16' W 122°27'0 0.0
2017-Sep-28 12:29N 47°16' W 122°27'0 0.0
2017-Sep-28 11:59N 47°16' W 122°27'0 0.0
2017-Sep-28 11:29N 47°16' W 122°27'0 0.0
2017-Sep-28 10:59N 47°16' W 122°27'0 0.0
2017-Sep-28 10:29N 47°16' W 122°27'0 0.0
2017-Sep-28 09:59N 47°16' W 122°27'0 0.0
2017-Sep-28 09:29N 47°16' W 122°27'0 0.0
2017-Sep-28 08:59N 47°16' W 122°27'0 0.0
2017-Sep-28 08:29N 47°16' W 122°27'0 0.0
2017-Sep-28 07:59N 47°16' W 122°27'0 0.0
2017-Sep-28 07:26N 47°16' W 122°27'0 0.0
2017-Sep-28 06:59N 47°16' W 122°27'0 0.0
2017-Sep-28 06:29N 47°16' W 122°27'0 0.0
2017-Sep-28 05:59N 47°16' W 122°27'0 0.0
2017-Sep-28 05:29N 47°16' W 122°27'0 0.2
2017-Sep-28 05:00N 47°16' W 122°27'3 5.9
2017-Sep-28 04:31N 47°18' W 122°30'0 0.7
2017-Sep-28 03:56N 47°18' W 122°30'0 0.1
2017-Sep-28 03:29N 47°18' W 122°30'0 0.0
2017-Sep-28 02:59N 47°18' W 122°30'0 0.0
2017-Sep-28 02:29N 47°18' W 122°30'0 0.1
2017-Sep-28 01:59N 47°18' W 122°30'0 0.1
2017-Sep-28 01:29N 47°18' W 122°30'0 0.0
2017-Sep-28 00:59N 47°18' W 122°30'0 0.0
2017-Sep-28 00:26N 47°18' W 122°30'0 0.1
2017-Sep-27 23:59N 47°18' W 122°30'0 0.2
2017-Sep-27 23:29N 47°18' W 122°30'0 0.0
2017-Sep-27 22:59N 47°18' W 122°30'0 0.0
2017-Sep-27 22:29N 47°18' W 122°30'0 0.0
2017-Sep-27 21:59N 47°18' W 122°30'0 0.0
2017-Sep-27 21:26N 47°18' W 122°30'0 0.0
2017-Sep-27 20:50N 47°18' W 122°30'0 0.0
2017-Sep-27 20:29N 47°18' W 122°30'0 0.0
2017-Sep-27 19:59N 47°18' W 122°30'0 0.0
2017-Sep-27 19:29N 47°18' W 122°30'0 0.0
2017-Sep-27 18:56N 47°18' W 122°30'0 0.1
2017-Sep-27 18:29N 47°18' W 122°30'0 0.0
2017-Sep-27 17:59N 47°18' W 122°30'0 0.0
2017-Sep-27 17:29N 47°18' W 122°30'0 0.0
2017-Sep-27 16:59N 47°18' W 122°30'0 0.0
2017-Sep-27 16:29N 47°18' W 122°30'0 0.2
2017-Sep-27 15:59N 47°18' W 122°30'0 0.0
2017-Sep-27 15:29N 47°18' W 122°30'0 0.0
2017-Sep-27 14:59N 47°18' W 122°30'0 0.0
2017-Sep-27 14:26N 47°18' W 122°30'0 0.1
2017-Sep-27 13:59N 47°18' W 122°30'0 0.1
2017-Sep-27 13:29N 47°18' W 122°30'0 0.3
2017-Sep-27 12:56N 47°18' W 122°30'0 0.1
2017-Sep-27 12:29N 47°18' W 122°30'0 0.2
2017-Sep-27 11:59N 47°18' W 122°30'0 0.0
2017-Sep-27 11:29N 47°18' W 122°30'0 0.1
2017-Sep-27 10:59N 47°18' W 122°30'0 0.0
2017-Sep-27 10:29N 47°18' W 122°30'0 0.1
2017-Sep-27 09:59N 47°18' W 122°30'0 0.1
2017-Sep-27 09:29N 47°18' W 122°30'0 0.2
2017-Sep-27 08:59N 47°18' W 122°30'0 0.3
2017-Sep-27 08:29N 47°18' W 122°30'0 0.1
2017-Sep-27 07:59N 47°18' W 122°30'0 0.1
2017-Sep-27 07:29N 47°18' W 122°30'0 0.1
2017-Sep-27 06:59N 47°18' W 122°30'0 0.1
2017-Sep-27 06:29N 47°18' W 122°30'0 0.2
2017-Sep-27 05:59N 47°18' W 122°30'0 0.1
2017-Sep-27 05:29N 47°18' W 122°30'0 0.1
2017-Sep-27 04:59N 47°18' W 122°30'0 0.1
2017-Sep-27 04:29N 47°18' W 122°30'0 0.1
2017-Sep-27 03:59N 47°18' W 122°30'0 0.0
2017-Sep-27 03:29N 47°18' W 122°30'0 0.1
2017-Sep-27 02:59N 47°18' W 122°30'0 0.1
2017-Sep-27 02:29N 47°18' W 122°30'0 0.1
2017-Sep-27 01:59N 47°18' W 122°30'0 0.0
2017-Sep-27 01:29N 47°18' W 122°30'0 0.1
2017-Sep-27 00:59N 47°18' W 122°30'0 0.2
2017-Sep-27 00:29N 47°18' W 122°30'0 0.4
2017-Sep-26 23:59N 47°18' W 122°30'0 0.0
2017-Sep-26 23:29N 47°18' W 122°30'0 0.0
2017-Sep-26 22:59N 47°18' W 122°30'0 0.1
2017-Sep-26 22:29N 47°18' W 122°30'0 0.0
2017-Sep-26 21:56N 47°18' W 122°30'0 0.0
2017-Sep-26 21:29N 47°18' W 122°30'0 0.0
2017-Sep-26 20:56N 47°18' W 122°30'0 0.0
2017-Sep-26 20:23N 47°18' W 122°30'0 0.0
2017-Sep-26 19:59N 47°18' W 122°30'0 0.0
2017-Sep-26 19:28N 47°18' W 122°30'0 0.0
2017-Sep-26 18:58N 47°18' W 122°30'0 0.1
2017-Sep-26 18:25N 47°18' W 122°30'0 0.1
2017-Sep-26 17:55N 47°18' W 122°30'0 0.1
2017-Sep-26 17:28N 47°18' W 122°30'0 0.0
2017-Sep-26 16:58N 47°18' W 122°30'0 0.1
2017-Sep-26 16:28N 47°18' W 122°30'0 0.0
2017-Sep-26 15:55N 47°18' W 122°30'0 0.1
2017-Sep-26 15:28N 47°18' W 122°30'0 0.0
2017-Sep-26 14:55N 47°18' W 122°30'0 0.0
2017-Sep-26 14:28N 47°18' W 122°30'0 0.1
2017-Sep-26 13:58N 47°18' W 122°30'0 0.0
2017-Sep-26 13:28N 47°18' W 122°30'0 0.1
2017-Sep-26 12:58N 47°18' W 122°30'0 0.0
2017-Sep-26 12:28N 47°18' W 122°30'0 0.1
2017-Sep-26 11:58N 47°19' W 122°30'0 0.1
2017-Sep-26 11:28N 47°18' W 122°30'0 0.1
2017-Sep-26 10:49N 47°18' W 122°30'0 0.0
2017-Sep-26 10:28N 47°18' W 122°30'0 0.0
2017-Sep-26 09:58N 47°18' W 122°30'0 0.0
2017-Sep-26 09:28N 47°18' W 122°30'0 0.0
2017-Sep-26 08:58N 47°18' W 122°30'0 0.2
2017-Sep-26 08:28N 47°18' W 122°30'0 0.1
2017-Sep-26 07:58N 47°18' W 122°30'0 0.0
2017-Sep-26 07:28N 47°19' W 122°30'0 0.1
2017-Sep-26 06:58N 47°19' W 122°30'0 0.1
2017-Sep-26 06:28N 47°18' W 122°30'0 0.1
2017-Sep-26 05:58N 47°18' W 122°30'0 0.1
2017-Sep-26 05:28N 47°19' W 122°30'0 0.2
2017-Sep-26 04:58N 47°18' W 122°30'0 0.1
2017-Sep-26 04:28N 47°18' W 122°30'0 0.0
2017-Sep-26 03:58N 47°18' W 122°30'0 0.0
2017-Sep-26 03:28N 47°18' W 122°30'0 0.1
2017-Sep-26 02:58N 47°18' W 122°30'0 0.1
2017-Sep-26 02:28N 47°18' W 122°30'0 0.1
2017-Sep-26 01:58N 47°18' W 122°30'0 0.1
2017-Sep-26 01:25N 47°18' W 122°30'0 0.1
2017-Sep-26 00:58N 47°18' W 122°30'0 0.2
2017-Sep-26 00:28N 47°19' W 122°30'0 0.1
2017-Sep-25 23:58N 47°18' W 122°30'0 0.1
2017-Sep-25 23:28N 47°19' W 122°30'0 0.2
2017-Sep-25 22:58N 47°18' W 122°30'0 0.0
2017-Sep-25 22:28N 47°18' W 122°30'0 0.0
2017-Sep-25 21:58N 47°18' W 122°30'0 0.1
2017-Sep-25 21:28N 47°18' W 122°30'0 0.0
2017-Sep-25 20:58N 47°18' W 122°30'0 0.0
2017-Sep-25 20:28N 47°18' W 122°30'0 0.1
2017-Sep-25 19:58N 47°18' W 122°30'0 0.1
2017-Sep-25 19:28N 47°19' W 122°30'0 0.0
2017-Sep-25 18:58N 47°18' W 122°30'0 0.0
2017-Sep-25 18:28N 47°19' W 122°30'0 0.1
2017-Sep-25 17:58N 47°18' W 122°30'0 0.0
2017-Sep-25 17:25N 47°18' W 122°30'0 0.1
2017-Sep-25 16:58N 47°18' W 122°30'0 0.0
2017-Sep-25 16:28N 47°18' W 122°30'0 0.2
2017-Sep-25 15:58N 47°18' W 122°30'0 0.1
2017-Sep-25 15:28N 47°18' W 122°30'0 0.0
2017-Sep-25 14:58N 47°18' W 122°30'0 0.1
2017-Sep-25 14:28N 47°18' W 122°30'0 0.0
2017-Sep-25 13:58N 47°18' W 122°30'0 0.0
2017-Sep-25 13:28N 47°18' W 122°30'0 0.1
2017-Sep-25 12:58N 47°18' W 122°30'0 0.0
2017-Sep-25 12:28N 47°18' W 122°30'0 0.0
2017-Sep-25 11:58N 47°18' W 122°30'0 0.0
2017-Sep-25 11:25N 47°18' W 122°30'0 0.1
2017-Sep-25 10:58N 47°18' W 122°30'0 0.1
2017-Sep-25 10:28N 47°18' W 122°30'0 0.0
2017-Sep-25 09:58N 47°18' W 122°30'0 0.2
2017-Sep-25 09:28N 47°18' W 122°30'0 0.1
2017-Sep-25 08:58N 47°18' W 122°30'0 0.2
2017-Sep-25 08:28N 47°18' W 122°30'0 0.0
2017-Sep-25 08:01N 47°18' W 122°30'0 0.2
2017-Sep-25 07:28N 47°18' W 122°30'0 0.2
2017-Sep-25 07:01N 47°18' W 122°30'0 0.1
2017-Sep-25 06:30N 47°18' W 122°30'0 0.0
2017-Sep-25 06:00N 47°18' W 122°30'0 0.2
2017-Sep-25 05:30N 47°18' W 122°30'0 0.1
2017-Sep-25 05:00N 47°18' W 122°30'0 0.1
2017-Sep-25 04:30N 47°18' W 122°30'0 0.2
2017-Sep-25 04:00N 47°18' W 122°30'0 0.1
2017-Sep-25 03:27N 47°18' W 122°30'0 0.0
2017-Sep-25 03:00N 47°18' W 122°30'0 0.1
2017-Sep-25 02:30N 47°18' W 122°30'0 0.2
2017-Sep-25 02:00N 47°18' W 122°30'0 0.1
2017-Sep-25 01:30N 47°18' W 122°30'0 0.1
2017-Sep-25 01:00N 47°18' W 122°30'0 0.1
2017-Sep-25 00:30N 47°18' W 122°30'0 0.0
2017-Sep-25 00:00N 47°18' W 122°30'0 0.1
2017-Sep-24 23:30N 47°18' W 122°30'0 0.1
2017-Sep-24 23:00N 47°18' W 122°30'0 0.2
2017-Sep-24 22:30N 47°18' W 122°30'0 0.2
2017-Sep-24 22:00N 47°18' W 122°30'0 0.2
2017-Sep-24 21:30N 47°18' W 122°30'0 0.1
2017-Sep-24 20:57N 47°18' W 122°30'0 0.3
2017-Sep-24 20:30N 47°18' W 122°30'0 0.2
2017-Sep-24 20:00N 47°18' W 122°30'0 0.1
2017-Sep-24 19:30N 47°19' W 122°30'0 0.1
2017-Sep-24 19:00N 47°18' W 122°30'0 0.0
2017-Sep-24 18:30N 47°18' W 122°30'0 0.1
2017-Sep-24 18:00N 47°18' W 122°30'0 0.0
2017-Sep-24 17:30N 47°19' W 122°30'0 0.1
2017-Sep-24 17:00N 47°18' W 122°30'0 0.1
2017-Sep-24 16:30N 47°18' W 122°30'0 0.0
2017-Sep-24 16:00N 47°18' W 122°30'0 0.0
2017-Sep-24 15:30N 47°18' W 122°30'0 0.0
2017-Sep-24 15:00N 47°18' W 122°30'0 0.1
2017-Sep-24 14:30N 47°18' W 122°30'0 0.1
2017-Sep-24 14:00N 47°18' W 122°30'0 0.0
2017-Sep-24 13:30N 47°18' W 122°30'0 0.0
2017-Sep-24 13:00N 47°18' W 122°30'0 0.0
2017-Sep-24 12:27N 47°18' W 122°30'0 0.0
2017-Sep-24 12:00N 47°18' W 122°30'0 0.1
2017-Sep-24 11:30N 47°18' W 122°30'0 0.0
2017-Sep-24 11:00N 47°18' W 122°30'0 0.1
2017-Sep-24 10:30N 47°18' W 122°30'0 0.2
2017-Sep-24 10:00N 47°18' W 122°30'0 0.1
2017-Sep-24 09:30N 47°18' W 122°30'0 0.2
2017-Sep-24 09:00N 47°18' W 122°30'0 0.0
2017-Sep-24 08:30N 47°18' W 122°30'0 0.2
2017-Sep-24 08:00N 47°18' W 122°30'0 0.3
2017-Sep-24 07:30N 47°18' W 122°30'0 0.0
2017-Sep-24 07:00N 47°18' W 122°30'0 0.0
2017-Sep-24 06:30N 47°18' W 122°30'0 0.1
2017-Sep-24 06:00N 47°18' W 122°30'0 0.1
2017-Sep-24 05:30N 47°18' W 122°30'0 0.0
2017-Sep-24 05:00N 47°18' W 122°30'0 0.0
2017-Sep-24 04:30N 47°18' W 122°30'0 0.1
2017-Sep-24 04:00N 47°19' W 122°30'0 0.2
2017-Sep-24 03:30N 47°18' W 122°30'0 0.2
2017-Sep-24 03:00N 47°18' W 122°30'0 0.1
2017-Sep-24 02:30N 47°18' W 122°30'0 0.0
2017-Sep-24 02:00N 47°18' W 122°30'0 0.0
2017-Sep-24 01:30N 47°18' W 122°30'0 0.1
2017-Sep-24 01:00N 47°18' W 122°30'0 0.0
2017-Sep-24 00:30N 47°18' W 122°30'0 0.0
2017-Sep-24 00:00N 47°18' W 122°30'0 0.2
2017-Sep-23 23:27N 47°18' W 122°30'0 0.2
2017-Sep-23 23:00N 47°18' W 122°30'  

Dump ship's entire track history